createdAt,value
2023-03-06T00:00:42.042Z,1.77
2023-03-06T00:05:36.326Z,4.50
2023-03-06T00:08:03.853Z,3.42
2023-03-06T00:10:31.606Z,3.95
2023-03-06T00:13:00.969Z,3.25
2023-03-06T00:15:28.930Z,3.28
2023-03-06T00:17:56.222Z,8.15
2023-03-06T00:20:24.123Z,4.30
2023-03-06T00:22:51.416Z,2.65
2023-03-06T00:25:20.786Z,2.45
2023-03-06T00:27:48.668Z,1.33
2023-03-06T00:30:19.049Z,1.73
2023-03-06T00:32:46.350Z,3.75
2023-03-06T00:35:14.375Z,1.70
2023-03-06T00:37:44.004Z,2.28
2023-03-06T00:40:14.114Z,1.85
2023-03-06T00:42:41.281Z,5.82
2023-03-06T00:45:09.863Z,7.32
2023-03-06T00:47:37.154Z,4.93
2023-03-06T00:50:05.232Z,7.60
2023-03-06T00:52:32.725Z,2.80
2023-03-06T00:54:59.844Z,4.60
2023-03-06T00:57:27.056Z,2.20
2023-03-06T00:59:54.188Z,4.32
2023-03-06T01:02:21.670Z,1.25
2023-03-06T01:04:48.836Z,3.40
2023-03-06T01:07:15.703Z,2.70
2023-03-06T01:09:42.862Z,3.33
2023-03-06T01:12:09.977Z,4.30
2023-03-06T01:14:37.205Z,3.22
2023-03-06T01:17:04.463Z,2.05
2023-03-06T01:19:31.530Z,3.60
2023-03-06T01:21:58.608Z,5.05
2023-03-06T01:24:26.161Z,4.78
2023-03-06T01:26:56.643Z,3.53
2023-03-06T01:29:23.837Z,3.50
2023-03-06T01:31:50.710Z,3.63
2023-03-06T01:34:18.214Z,4.32
2023-03-06T01:36:45.549Z,2.35
2023-03-06T01:39:12.448Z,1.38
2023-03-06T01:41:39.594Z,3.22
2023-03-06T01:44:06.402Z,3.60
2023-03-06T01:46:43.959Z,2.83
2023-03-06T01:49:26.476Z,2.78
2023-03-06T01:52:07.744Z,4.85
2023-03-06T01:54:37.702Z,2.38
2023-03-06T01:57:13.401Z,1.30
2023-03-06T01:59:42.842Z,6.43
2023-03-06T02:02:11.734Z,3.08
2023-03-06T02:04:40.843Z,5.43
2023-03-06T02:07:08.703Z,5.43
2023-03-06T02:09:37.292Z,4.97
2023-03-06T02:12:09.611Z,1.65
2023-03-06T02:14:37.304Z,2.28
2023-03-06T02:17:05.943Z,2.50
2023-03-06T02:19:40.884Z,1.67
2023-03-06T02:22:08.181Z,1.02
2023-03-06T02:24:45.711Z,4.55
2023-03-06T02:27:14.706Z,3.70
2023-03-06T02:29:42.966Z,0.88
2023-03-06T02:32:11.203Z,2.50
2023-03-06T02:34:38.371Z,5.05
2023-03-06T02:37:11.300Z,2.65
2023-03-06T02:39:43.609Z,3.25
2023-03-06T02:42:20.995Z,3.35
2023-03-06T02:44:49.104Z,2.88
2023-03-06T02:47:16.052Z,2.95
2023-03-06T02:49:43.275Z,2.47
2023-03-06T02:52:10.609Z,2.80
2023-03-06T02:54:39.982Z,3.22
2023-03-06T02:57:07.930Z,1.77
2023-03-06T02:59:35.560Z,3.75
2023-03-06T03:02:04.917Z,0.93
2023-03-06T03:04:34.269Z,3.28
2023-03-06T03:07:02.497Z,9.48
2023-03-06T03:09:29.782Z,5.32
2023-03-06T03:11:57.078Z,1.65
2023-03-06T03:14:25.156Z,2.40
2023-03-06T03:16:53.238Z,2.83
2023-03-06T03:19:20.557Z,2.65
2023-03-06T03:21:47.802Z,2.47
2023-03-06T03:24:15.090Z,1.25
2023-03-06T03:26:43.123Z,1.92
2023-03-06T03:29:14.729Z,3.15
2023-03-06T03:31:42.042Z,3.00
2023-03-06T03:34:09.629Z,3.75
2023-03-06T03:36:39.854Z,3.83
2023-03-06T03:39:08.982Z,2.97
2023-03-06T03:41:36.646Z,5.32
2023-03-06T03:44:07.226Z,3.85
2023-03-06T03:46:34.741Z,6.40
2023-03-06T03:49:03.253Z,2.08
2023-03-06T03:51:31.332Z,3.63
2023-03-06T03:53:59.641Z,3.95
2023-03-06T03:56:30.422Z,2.47
2023-03-06T03:59:05.391Z,3.45
2023-03-06T04:01:39.983Z,1.52
2023-03-06T04:04:08.338Z,3.03
2023-03-06T04:06:36.412Z,4.00
2023-03-06T04:09:04.840Z,4.90
2023-03-06T04:11:33.412Z,1.83
2023-03-06T04:14:01.111Z,2.65
2023-03-06T04:16:28.599Z,8.43
2023-03-06T04:18:56.329Z,3.13
2023-03-06T04:21:23.648Z,4.13
2023-03-06T04:23:50.953Z,3.78
2023-03-06T04:26:18.348Z,3.58
2023-03-06T04:28:45.841Z,1.42
2023-03-06T04:31:13.506Z,2.88
2023-03-06T04:33:40.844Z,7.18
2023-03-06T04:36:20.963Z,7.45
2023-03-06T04:41:16.488Z,4.93
2023-03-06T04:43:44.017Z,5.47
2023-03-06T04:46:11.832Z,3.95
2023-03-06T04:48:38.940Z,4.78
2023-03-06T04:51:07.067Z,7.70
2023-03-06T04:53:34.185Z,8.77
2023-03-06T04:56:01.534Z,8.55
2023-03-06T04:58:28.574Z,8.73
2023-03-06T05:00:56.093Z,7.10
2023-03-06T05:03:23.494Z,6.22
2023-03-06T05:05:51.061Z,3.90
2023-03-06T05:08:18.436Z,7.20
2023-03-06T05:10:46.245Z,7.35
2023-03-06T05:13:13.444Z,3.15
2023-03-06T05:15:42.377Z,7.55
2023-03-06T05:18:09.653Z,6.95
2023-03-06T05:20:36.918Z,5.15
2023-03-06T05:23:04.318Z,5.70
2023-03-06T05:25:31.435Z,9.02
2023-03-06T05:27:58.899Z,7.63
2023-03-06T05:30:26.315Z,5.68
2023-03-06T05:32:53.926Z,2.90
2023-03-06T05:35:23.769Z,3.72
2023-03-06T05:37:51.351Z,3.58
2023-03-06T05:40:19.480Z,2.65
2023-03-06T05:42:46.709Z,3.28
2023-03-06T05:45:14.062Z,5.82
2023-03-06T05:47:41.447Z,6.53
2023-03-06T05:50:10.803Z,3.33
2023-03-06T05:52:40.033Z,4.47
2023-03-06T05:55:08.493Z,4.10
2023-03-06T05:57:35.640Z,5.75
2023-03-06T06:00:04.154Z,3.30
2023-03-06T06:02:39.680Z,2.85
2023-03-06T06:05:08.190Z,5.45
2023-03-06T06:07:35.599Z,6.50
2023-03-06T06:10:03.879Z,6.43
2023-03-06T06:12:31.241Z,5.63
2023-03-06T06:14:58.741Z,3.47
2023-03-06T06:17:25.992Z,8.60
2023-03-06T06:19:53.392Z,6.55
2023-03-06T06:22:20.389Z,5.78
2023-03-06T06:24:47.549Z,6.70
2023-03-06T06:27:14.607Z,4.55
2023-03-06T06:29:41.988Z,5.82
2023-03-06T06:32:09.284Z,2.95
2023-03-06T06:34:36.797Z,5.97
2023-03-06T06:37:04.229Z,4.47
2023-03-06T06:39:31.373Z,7.75
2023-03-06T06:42:20.812Z,5.82
2023-03-06T06:44:46.019Z,4.65
2023-03-06T06:47:28.406Z,4.68
2023-03-06T06:49:56.650Z,5.90
2023-03-06T06:52:25.089Z,3.83
2023-03-06T06:54:53.279Z,1.60
2023-03-06T06:57:20.692Z,3.63
2023-03-06T06:59:48.047Z,3.40
2023-03-06T07:02:16.637Z,2.88
2023-03-06T07:05:02.121Z,4.20
2023-03-06T07:07:33.306Z,2.50
2023-03-06T07:10:00.658Z,2.53
2023-03-06T07:12:27.976Z,2.05
2023-03-06T07:14:55.242Z,2.53
2023-03-06T07:17:23.019Z,5.30
2023-03-06T07:19:50.332Z,4.90
2023-03-06T07:22:17.462Z,3.47
2023-03-06T07:24:44.554Z,4.57
2023-03-06T07:27:11.709Z,3.90
2023-03-06T07:29:38.986Z,5.65
2023-03-06T07:32:06.576Z,8.45
2023-03-06T07:34:34.055Z,5.50
2023-03-06T07:37:01.186Z,6.35
2023-03-06T07:39:30.142Z,5.82
2023-03-06T07:41:58.897Z,13.32
2023-03-06T07:44:26.950Z,8.82
2023-03-06T07:46:54.567Z,8.30
2023-03-06T07:49:22.078Z,14.23
2023-03-06T07:51:49.360Z,8.88
2023-03-06T07:54:16.604Z,4.65
2023-03-06T07:56:43.993Z,12.25
2023-03-06T07:59:12.064Z,5.95
2023-03-06T08:01:40.540Z,4.75
2023-03-06T08:04:07.874Z,3.47
2023-03-06T08:06:35.472Z,7.45
2023-03-06T08:09:02.849Z,5.63
2023-03-06T08:11:31.312Z,3.80
2023-03-06T08:13:59.685Z,5.15
2023-03-06T08:16:28.942Z,5.03
2023-03-06T08:18:57.027Z,5.20
2023-03-06T08:21:26.187Z,6.22
2023-03-06T08:23:53.712Z,13.90
2023-03-06T08:26:29.455Z,3.85
2023-03-06T08:28:58.523Z,6.00
2023-03-06T08:31:27.912Z,3.45
2023-03-06T08:33:56.265Z,5.35
2023-03-06T08:36:24.219Z,3.80
2023-03-06T08:38:52.143Z,7.22
2023-03-06T08:41:20.447Z,5.32
2023-03-06T08:43:47.868Z,5.28
2023-03-06T08:46:15.259Z,4.75
2023-03-06T08:48:42.658Z,5.32
2023-03-06T08:51:10.353Z,5.43
2023-03-06T08:53:43.397Z,2.72
2023-03-06T08:56:28.871Z,5.88
2023-03-06T08:58:57.839Z,1.85
2023-03-06T09:01:27.845Z,3.78
2023-03-06T09:03:56.690Z,4.30
2023-03-06T09:06:25.355Z,4.05
2023-03-06T09:08:53.485Z,33.78
2023-03-06T09:11:21.776Z,6.35
2023-03-06T09:13:49.356Z,2.55
2023-03-06T09:16:16.756Z,11.63
2023-03-06T09:18:44.062Z,110.15
2023-03-06T09:21:12.150Z,11.90
2023-03-06T09:23:39.751Z,61.60
2023-03-06T09:26:08.135Z,35.28
2023-03-06T09:28:39.544Z,27.05
2023-03-06T09:31:17.472Z,10.05
2023-03-06T09:33:45.296Z,12.15
2023-03-06T09:36:23.379Z,10.55
2023-03-06T09:38:51.157Z,3.67
2023-03-06T09:41:25.439Z,2.95
2023-03-06T09:44:06.492Z,24.60
2023-03-06T09:46:52.194Z,18.40
2023-03-06T09:49:35.161Z,21.75
2023-03-06T09:52:21.068Z,2.38
2023-03-06T09:54:54.346Z,12.02
2023-03-06T09:57:55.515Z,3.78
2023-03-06T10:00:27.862Z,27.02
2023-03-06T10:03:19.132Z,18.33
2023-03-06T10:06:16.659Z,5.57
2023-03-06T10:08:52.220Z,2.78
2023-03-06T10:11:25.099Z,85.88
2023-03-06T10:13:59.268Z,4.63
2023-03-06T10:16:29.649Z,6.18
2023-03-06T10:19:01.877Z,5.20
2023-03-06T10:21:58.081Z,3.30
2023-03-06T10:24:34.524Z,10.40
2023-03-06T10:27:14.276Z,8.07
2023-03-06T10:30:03.313Z,3.83
2023-03-06T10:32:58.956Z,6.13
2023-03-06T10:35:45.136Z,5.25
2023-03-06T10:38:25.934Z,2.85
2023-03-06T10:41:20.784Z,2.55
2023-03-06T10:44:09.686Z,3.03
2023-03-06T10:46:45.279Z,1.85
2023-03-06T10:49:28.594Z,2.97
2023-03-06T10:52:16.043Z,41.85
2023-03-06T10:54:44.643Z,10.82
2023-03-06T10:57:27.048Z,7.80
2023-03-06T10:59:57.496Z,9.10
2023-03-06T11:02:29.348Z,8.27
2023-03-06T11:04:58.315Z,4.28
2023-03-06T11:07:28.245Z,2.35
2023-03-06T11:09:58.674Z,4.95
2023-03-06T11:13:15.083Z,4.57
2023-03-06T11:15:56.696Z,9.30
2023-03-06T11:18:44.081Z,21.83
2023-03-06T11:21:32.482Z,9.85
2023-03-06T11:24:16.081Z,16.73
2023-03-06T11:26:57.172Z,11.10
2023-03-06T11:29:43.493Z,40.75
2023-03-06T11:32:40.238Z,12.32
2023-03-06T11:35:13.520Z,69.93
2023-03-06T11:37:51.600Z,15.15
2023-03-06T11:40:51.798Z,15.60
2023-03-06T11:43:45.245Z,40.72
2023-03-06T11:46:25.759Z,17.42
2023-03-06T11:49:06.113Z,26.98
2023-03-06T11:51:36.643Z,28.08
2023-03-06T11:54:04.019Z,59.05
2023-03-06T11:56:44.545Z,34.75
2023-03-06T11:59:19.232Z,39.00
2023-03-06T12:01:46.849Z,32.47
2023-03-06T12:04:13.863Z,10.70
2023-03-06T12:06:50.128Z,18.17
2023-03-06T12:09:20.602Z,15.07
2023-03-06T12:12:06.601Z,17.85
2023-03-06T12:14:49.732Z,19.20
2023-03-06T12:17:26.445Z,16.23
2023-03-06T12:20:12.411Z,16.38
2023-03-06T12:22:57.740Z,12.40
2023-03-06T12:25:39.740Z,27.15
2023-03-06T12:28:10.001Z,23.65
2023-03-06T12:31:02.740Z,15.15
2023-03-06T12:34:04.622Z,8.75
2023-03-06T12:36:50.510Z,15.52
2023-03-06T12:39:32.405Z,15.75
2023-03-06T12:42:23.265Z,17.15
2023-03-06T12:44:56.905Z,9.73
2023-03-06T12:47:26.650Z,9.30
2023-03-06T12:49:57.739Z,8.73
2023-03-06T12:52:30.543Z,27.70
2023-03-06T12:54:59.485Z,16.75
2023-03-06T12:57:27.145Z,11.45
2023-03-06T12:59:54.924Z,8.90
2023-03-06T13:02:47.502Z,12.13
2023-03-06T13:05:14.295Z,20.42
2023-03-06T13:08:38.771Z,9.98
2023-03-06T13:11:27.844Z,15.63
2023-03-06T13:13:55.509Z,11.63
2023-03-06T13:16:33.312Z,13.73
2023-03-06T13:19:16.808Z,12.35
2023-03-06T13:21:55.809Z,11.27
2023-03-06T13:27:02.534Z,9.27
2023-03-06T13:29:38.913Z,11.20
2023-03-06T13:32:14.484Z,12.13
2023-03-06T13:34:43.028Z,10.27
2023-03-06T13:37:25.275Z,8.70
2023-03-06T13:39:55.290Z,10.02
2023-03-06T13:42:37.073Z,13.60
2023-03-06T13:45:08.070Z,16.73
2023-03-06T13:48:33.598Z,9.02
2023-03-06T13:50:47.167Z,12.13
2023-03-06T13:53:40.862Z,8.60
2023-03-06T13:56:37.566Z,9.35
2023-03-06T13:59:14.292Z,8.98
2023-03-06T14:02:14.481Z,10.07
2023-03-06T14:04:55.242Z,10.27
2023-03-06T14:07:31.029Z,9.98
2023-03-06T14:10:23.167Z,6.82
2023-03-06T14:12:50.303Z,13.27
2023-03-06T14:15:37.297Z,8.63
2023-03-06T14:18:06.453Z,8.40
2023-03-06T14:20:39.257Z,7.40
2023-03-06T14:25:45.203Z,13.93
2023-03-06T14:28:27.520Z,16.40
2023-03-06T14:30:56.107Z,5.32
2023-03-06T14:33:37.978Z,5.00
2023-03-06T14:36:09.341Z,8.73
2023-03-06T14:38:45.190Z,7.20
2023-03-06T14:41:14.073Z,6.85
2023-03-06T14:43:41.340Z,9.82
2023-03-06T14:46:19.213Z,12.32
2023-03-06T14:48:47.815Z,10.00
2023-03-06T14:51:21.175Z,9.63
2023-03-06T14:53:49.839Z,10.05
2023-03-06T14:56:24.888Z,9.68
2023-03-06T14:58:52.721Z,12.45
2023-03-06T15:01:32.897Z,11.38
2023-03-06T15:04:00.898Z,7.22
2023-03-06T15:06:33.329Z,8.35
2023-03-06T15:09:24.798Z,10.45
2023-03-06T15:12:08.148Z,13.23
2023-03-06T15:14:42.174Z,8.68
2023-03-06T15:17:18.777Z,12.30
2023-03-06T15:19:48.877Z,24.70
2023-03-06T15:22:35.907Z,26.08
2023-03-06T15:25:21.610Z,24.50
2023-03-06T15:27:53.283Z,17.00
2023-03-06T15:30:27.948Z,24.95
2023-03-06T15:33:20.437Z,23.33
2023-03-06T15:36:17.954Z,23.83
2023-03-06T15:38:46.354Z,26.23
2023-03-06T15:41:42.103Z,33.25
2023-03-06T15:44:12.198Z,14.75
2023-03-06T15:46:39.741Z,13.43
2023-03-06T15:49:14.781Z,31.58
2023-03-06T15:51:43.619Z,16.63
2023-03-06T15:54:12.877Z,26.02
2023-03-06T15:56:42.360Z,26.85
2023-03-06T15:59:17.087Z,17.80
2023-03-06T16:01:44.451Z,15.85
2023-03-06T16:04:11.961Z,15.93
2023-03-06T16:06:38.933Z,13.20
2023-03-06T16:09:06.345Z,23.20
2023-03-06T16:11:43.362Z,21.08
2023-03-06T16:14:24.088Z,18.10
2023-03-06T16:16:54.451Z,24.75
2023-03-06T16:19:26.429Z,67.82
2023-03-06T16:21:55.388Z,33.88
2023-03-06T16:24:22.680Z,26.55
2023-03-06T16:26:51.075Z,60.78
2023-03-06T16:29:19.563Z,15.15
2023-03-06T16:31:46.588Z,14.23
2023-03-06T16:34:13.552Z,19.70
2023-03-06T16:36:40.421Z,15.02
2023-03-06T16:39:13.572Z,19.95
2023-03-06T16:41:40.415Z,40.63
2023-03-06T16:44:07.880Z,20.30
2023-03-06T16:46:37.687Z,16.60
2023-03-06T16:49:04.658Z,22.38
2023-03-06T16:51:31.994Z,15.38
2023-03-06T16:53:59.044Z,16.70
2023-03-06T16:56:31.592Z,27.88
2023-03-06T16:59:00.636Z,20.55
2023-03-06T17:01:27.903Z,21.77
2023-03-06T17:03:55.195Z,20.30
2023-03-06T17:06:23.367Z,21.08
2023-03-06T17:08:51.306Z,22.08
2023-03-06T17:11:20.571Z,21.70
2023-03-06T17:13:48.634Z,19.48
2023-03-06T17:16:16.689Z,19.90
2023-03-06T17:18:45.621Z,21.98
2023-03-06T17:21:17.640Z,20.30
2023-03-06T17:23:45.151Z,21.50
2023-03-06T17:26:13.919Z,23.45
2023-03-06T17:28:41.703Z,22.85
2023-03-06T17:31:20.347Z,23.98
2023-03-06T17:33:48.751Z,22.80
2023-03-06T17:36:16.764Z,31.40
2023-03-06T17:38:44.709Z,28.10
2023-03-06T17:41:12.523Z,37.55
2023-03-06T17:43:39.852Z,31.25
2023-03-06T17:46:12.756Z,29.80
2023-03-06T17:48:40.807Z,35.28
2023-03-06T17:51:08.066Z,28.02
2023-03-06T17:53:35.976Z,26.90
2023-03-06T17:56:05.643Z,31.52
2023-03-06T17:58:33.223Z,28.00
2023-03-06T18:01:01.116Z,32.15
2023-03-06T18:03:28.397Z,35.60
2023-03-06T18:06:02.152Z,33.85
2023-03-06T18:08:29.702Z,36.03
2023-03-06T18:11:01.080Z,42.97
2023-03-06T18:13:28.494Z,33.05
2023-03-06T18:15:55.780Z,29.70
2023-03-06T18:18:24.456Z,36.53
2023-03-06T18:20:51.962Z,37.35
2023-03-06T18:23:19.361Z,39.90
2023-03-06T18:25:46.862Z,38.90
2023-03-06T18:28:14.172Z,39.25
2023-03-06T18:30:42.752Z,44.15
2023-03-06T18:33:10.735Z,39.50
2023-03-06T18:35:38.074Z,44.45
2023-03-06T18:38:05.719Z,47.88
2023-03-06T18:40:32.971Z,43.38
2023-03-06T18:43:00.084Z,52.53
2023-03-06T18:45:27.515Z,45.15
2023-03-06T18:47:55.205Z,45.67
2023-03-06T18:50:22.545Z,49.10
2023-03-06T18:52:49.973Z,47.47
2023-03-06T18:55:17.504Z,46.67
2023-03-06T19:24:01.436Z,50.05
2023-03-06T19:26:28.399Z,58.97
2023-03-06T19:28:55.090Z,69.45
2023-03-06T19:31:27.156Z,71.85
2023-03-06T19:39:16.595Z,51.33
2023-03-06T19:41:43.431Z,44.65
2023-03-06T19:44:10.114Z,51.63
2023-03-06T19:46:37.745Z,66.50
2023-03-06T19:53:17.257Z,49.50
2023-03-06T19:55:44.203Z,47.72
2023-03-06T19:58:11.385Z,50.58
2023-03-06T20:00:38.556Z,46.00
2023-03-06T20:07:18.281Z,68.90
2023-03-06T20:09:45.204Z,54.08
2023-03-06T20:12:12.559Z,61.40
2023-03-06T20:14:39.254Z,55.08
2023-03-06T20:21:25.882Z,47.67
2023-03-06T20:23:53.915Z,41.28
2023-03-06T20:26:21.053Z,47.30
2023-03-06T20:28:47.935Z,49.83
2023-03-06T20:31:19.972Z,54.33
2023-03-06T20:33:49.355Z,47.20
2023-03-06T20:36:18.302Z,48.78
2023-03-06T20:38:45.022Z,57.92
2023-03-06T20:41:20.380Z,65.82
2023-03-06T20:43:49.234Z,50.85
2023-03-06T20:46:16.229Z,53.88
2023-03-06T20:48:43.662Z,47.67
2023-03-06T20:51:17.812Z,40.20
2023-03-06T20:53:44.594Z,24.20
2023-03-06T20:56:12.905Z,12.48
2023-03-06T20:58:39.703Z,12.13
2023-03-06T21:01:06.429Z,13.15
2023-03-06T21:03:33.040Z,11.13
2023-03-06T21:05:59.794Z,8.27
2023-03-06T21:08:26.934Z,11.93
2023-03-06T21:10:53.944Z,11.10
2023-03-06T21:13:20.829Z,10.52
2023-03-06T21:15:47.788Z,4.78
2023-03-06T21:18:14.630Z,10.00
2023-03-06T21:20:41.702Z,6.78
2023-03-06T21:23:09.353Z,4.90
2023-03-06T21:25:36.714Z,6.40
2023-03-06T21:28:03.540Z,14.38
2023-03-06T21:30:30.297Z,9.40
2023-03-06T21:32:57.112Z,7.88
2023-03-06T21:35:23.778Z,6.53
2023-03-06T21:37:50.506Z,6.38
2023-03-06T21:40:17.306Z,7.93
2023-03-06T21:42:44.203Z,9.32
2023-03-06T21:45:11.100Z,7.88
2023-03-06T21:47:38.892Z,9.30
2023-03-06T21:50:07.714Z,5.88
2023-03-06T21:52:34.386Z,11.40
2023-03-06T21:55:01.199Z,7.95
2023-03-06T21:57:27.911Z,7.55
2023-03-06T21:59:54.674Z,8.27
2023-03-06T22:02:23.888Z,11.15
2023-03-06T22:04:52.527Z,9.80
2023-03-06T22:07:20.267Z,11.93
2023-03-06T22:09:47.263Z,8.20
2023-03-06T22:12:14.474Z,8.15
2023-03-06T22:14:51.320Z,9.40
2023-03-06T22:17:26.859Z,10.43
2023-03-06T22:19:56.196Z,14.05
2023-03-06T22:22:23.029Z,6.72
2023-03-06T22:24:49.813Z,11.43
2023-03-06T22:27:16.909Z,4.15
2023-03-06T22:29:43.606Z,6.20
2023-03-06T22:32:10.401Z,3.90
2023-03-06T22:34:37.124Z,4.57
2023-03-06T22:37:04.229Z,6.68
2023-03-06T22:39:31.031Z,5.75
2023-03-06T22:41:58.313Z,7.28
2023-03-06T22:44:25.199Z,9.52
2023-03-06T22:46:52.151Z,10.18
2023-03-06T22:49:19.102Z,6.22
2023-03-06T22:51:45.694Z,6.93
2023-03-06T22:54:12.626Z,9.13
2023-03-06T22:56:40.656Z,8.20
2023-03-06T22:59:07.576Z,6.03
2023-03-06T23:01:34.899Z,12.38
2023-03-06T23:04:04.196Z,13.52
2023-03-06T23:06:33.144Z,33.65
2023-03-06T23:09:09.681Z,9.73
2023-03-06T23:11:54.938Z,12.32
2023-03-06T23:14:40.374Z,28.23
2023-03-06T23:17:26.088Z,14.13
2023-03-06T23:22:58.949Z,5.75
2023-03-06T23:25:40.771Z,10.80
2023-03-06T23:28:07.783Z,12.13
2023-03-06T23:30:34.584Z,12.45
2023-03-06T23:33:01.349Z,13.18
2023-03-06T23:35:28.052Z,13.15
2023-03-06T23:37:54.695Z,13.75
2023-03-06T23:40:22.075Z,15.57
2023-03-06T23:42:48.768Z,14.10
2023-03-06T23:45:15.740Z,12.55
2023-03-06T23:47:42.443Z,10.93
2023-03-06T23:50:09.882Z,9.73
2023-03-06T23:52:37.652Z,10.38
2023-03-06T23:55:05.696Z,10.38
2023-03-06T23:57:32.568Z,7.53
2023-03-06T23:59:59.275Z,14.57
